Augusta/Daniel Field, Georgia
Current Conditions -  °F | °C
As of 9:47 AM on Sunday 23 Nov 2014 (Local Time) from KDNL Reporting Station
Moderate Rain Moderate Rain  
Wind Chill: 14°   Ceiling: 600
Heat Index: 14°   Visibility: 2.5mi
Dew Point: 13°   Wind: 12mph
Humidity: 94%   Direction: 90°E
Pressure: 30.08"   Gusts: NA
Location:  33.47°N, 82.03°W
Report Text: KDNL 231447Z AUTO 09010KT 2 1/2SM RA BR OVC006 14/13 A3008 RMK AO2 CIG 004V010 P0013
Loading
Personal Weather Stations






























Interactive Weather Map New forecast layout! Learn more

10-Day Weather Forecast

Advertisements
Track Severe Weather on mobile